createdAt,value
2017-10-10T00:00:03.959Z,100918
2017-10-10T00:02:32.061Z,100921
2017-10-10T00:05:00.192Z,100927
2017-10-10T00:07:28.296Z,100930
2017-10-10T00:09:56.417Z,100920
2017-10-10T00:12:24.532Z,100919
2017-10-10T00:14:52.640Z,100914
2017-10-10T00:17:20.744Z,100909
2017-10-10T00:19:49.881Z,100919
2017-10-10T00:22:18.773Z,100923
2017-10-10T00:24:46.863Z,100915
2017-10-10T00:27:14.939Z,100913
2017-10-10T00:29:44.309Z,100916
2017-10-10T00:32:13.859Z,100909
2017-10-10T00:34:41.968Z,100903
2017-10-10T00:37:10.096Z,100915
2017-10-10T00:39:38.184Z,100912
2017-10-10T00:42:06.276Z,100901
2017-10-10T00:44:34.409Z,100900
2017-10-10T00:47:02.497Z,100899
2017-10-10T00:49:30.584Z,100892
2017-10-10T00:51:58.699Z,100897
2017-10-10T00:54:26.824Z,100891
2017-10-10T00:56:54.938Z,100905
2017-10-10T00:59:23.052Z,100892
2017-10-10T01:01:51.143Z,100900
2017-10-10T01:04:19.240Z,100895
2017-10-10T01:06:47.368Z,100897
2017-10-10T01:09:15.476Z,100891
2017-10-10T01:11:43.604Z,100888
2017-10-10T01:14:12.231Z,100881
2017-10-10T01:16:40.678Z,100886
2017-10-10T01:19:09.687Z,100875
2017-10-10T01:21:38.192Z,100880
2017-10-10T01:24:06.312Z,100876
2017-10-10T01:26:34.423Z,100876
2017-10-10T01:29:02.533Z,100869
2017-10-10T01:31:30.649Z,100859
2017-10-10T01:33:58.763Z,100861
2017-10-10T01:36:26.884Z,100857
2017-10-10T01:38:54.967Z,100853
2017-10-10T01:41:23.089Z,100848
2017-10-10T01:43:51.181Z,100836
2017-10-10T01:46:19.315Z,100849
2017-10-10T01:48:48.203Z,100849
2017-10-10T01:51:16.284Z,100844
2017-10-10T01:53:44.436Z,100845
2017-10-10T01:56:12.537Z,100843
2017-10-10T01:58:40.627Z,100835
2017-10-10T02:01:08.752Z,100831
2017-10-10T02:03:36.848Z,100832
2017-10-10T02:06:04.948Z,100835
2017-10-10T02:08:33.072Z,100832
2017-10-10T02:11:01.774Z,100829
2017-10-10T02:13:29.887Z,100825
2017-10-10T02:15:59.048Z,100829
2017-10-10T02:18:27.164Z,100829
2017-10-10T02:20:55.267Z,100822
2017-10-10T02:23:23.359Z,100817
2017-10-10T02:25:51.506Z,100822
2017-10-10T02:28:19.589Z,100818
2017-10-10T02:30:47.729Z,100813
2017-10-10T02:33:15.804Z,100808
2017-10-10T02:35:43.896Z,100813
2017-10-10T02:38:12.015Z,100806
2017-10-10T02:40:40.868Z,100809
2017-10-10T02:43:08.974Z,100808
2017-10-10T02:45:37.072Z,100806
2017-10-10T02:48:05.183Z,100799
2017-10-10T02:50:33.609Z,100796
2017-10-10T02:53:01.723Z,100796
2017-10-10T02:55:29.831Z,100808
2017-10-10T02:57:57.918Z,100803
2017-10-10T03:00:26.051Z,100799
2017-10-10T03:02:54.163Z,100796
2017-10-10T03:05:23.014Z,100802
2017-10-10T03:07:51.139Z,100794
2017-10-10T03:10:20.007Z,100793
2017-10-10T03:12:48.115Z,100797
2017-10-10T03:15:16.253Z,100792
2017-10-10T03:17:45.361Z,100797
2017-10-10T03:20:13.702Z,100794
2017-10-10T03:22:41.839Z,100786
2017-10-10T03:25:10.700Z,100792
2017-10-10T03:27:39.654Z,100788
2017-10-10T03:30:09.007Z,100790
2017-10-10T03:32:37.881Z,100780
2017-10-10T03:35:05.964Z,100783
2017-10-10T03:37:34.101Z,100782
2017-10-10T03:40:02.196Z,100779
2017-10-10T03:42:30.276Z,100782
2017-10-10T03:44:58.905Z,100777
2017-10-10T03:47:27.039Z,100775
2017-10-10T03:49:55.158Z,100780
2017-10-10T03:52:23.280Z,100770
2017-10-10T03:54:51.380Z,100768
2017-10-10T03:57:19.491Z,100768
2017-10-10T03:59:47.577Z,100767
2017-10-10T04:02:15.654Z,100772
2017-10-10T04:04:43.761Z,100773
2017-10-10T04:07:11.868Z,100771
2017-10-10T04:09:39.975Z,100776
2017-10-10T04:12:08.564Z,100772
2017-10-10T04:14:36.711Z,100772
2017-10-10T04:17:05.764Z,100771
2017-10-10T04:19:33.860Z,100772
2017-10-10T04:22:02.031Z,100766
2017-10-10T04:24:30.143Z,100768
2017-10-10T04:26:58.252Z,100774
2017-10-10T04:29:26.366Z,100771
2017-10-10T04:31:54.496Z,100771
2017-10-10T04:34:22.571Z,100760
2017-10-10T04:36:50.659Z,100749
2017-10-10T04:39:18.775Z,100755
2017-10-10T04:41:46.852Z,100757
2017-10-10T04:44:14.971Z,100757
2017-10-10T04:46:43.177Z,100757
2017-10-10T04:49:11.274Z,100767
2017-10-10T04:51:40.164Z,100771
2017-10-10T04:54:08.258Z,100767
2017-10-10T04:56:37.158Z,100769
2017-10-10T04:59:05.239Z,100764
2017-10-10T05:01:33.365Z,100769
2017-10-10T05:04:01.447Z,100771
2017-10-10T05:06:29.553Z,100766
2017-10-10T05:08:57.673Z,100770
2017-10-10T05:11:25.760Z,100769
2017-10-10T05:13:53.872Z,100778
2017-10-10T05:16:21.972Z,100783
2017-10-10T05:18:50.131Z,100779
2017-10-10T05:21:18.249Z,100784
2017-10-10T05:23:46.358Z,100778
2017-10-10T05:26:14.611Z,100782
2017-10-10T05:28:43.552Z,100778
2017-10-10T05:31:11.648Z,100767
2017-10-10T05:33:39.760Z,100769
2017-10-10T05:36:07.841Z,100771
2017-10-10T05:38:36.059Z,100767
2017-10-10T05:41:04.145Z,100763
2017-10-10T05:43:32.256Z,100765
2017-10-10T05:46:00.368Z,100774
2017-10-10T05:48:28.856Z,100773
2017-10-10T05:50:56.958Z,100776
2017-10-10T05:53:25.815Z,100767
2017-10-10T05:55:53.920Z,100783
2017-10-10T05:58:22.020Z,100775
2017-10-10T06:00:50.130Z,100777
2017-10-10T06:03:18.220Z,100773
2017-10-10T06:05:46.303Z,100770
2017-10-10T06:08:15.108Z,100776
2017-10-10T06:10:44.023Z,100772
2017-10-10T06:13:12.132Z,100771
2017-10-10T06:15:40.271Z,100780
2017-10-10T06:18:08.495Z,100787
2017-10-10T06:20:36.605Z,100789
2017-10-10T06:23:05.530Z,100795
2017-10-10T06:25:33.647Z,100790
2017-10-10T06:28:02.461Z,100793
2017-10-10T06:30:31.598Z,100793
2017-10-10T06:33:00.036Z,100790
2017-10-10T06:35:28.137Z,100801
2017-10-10T06:44:42.450Z,100805
2017-10-10T06:47:10.537Z,100804
2017-10-10T06:49:38.647Z,100803
2017-10-10T06:52:06.763Z,100808
2017-10-10T06:54:34.921Z,100810
2017-10-10T06:57:03.064Z,100820
2017-10-10T06:59:31.156Z,100816
2017-10-10T07:02:00.045Z,100823
2017-10-10T07:04:28.166Z,100819
2017-10-10T07:06:56.271Z,100829
2017-10-10T07:09:25.134Z,100831
2017-10-10T07:11:53.258Z,100839
2017-10-10T07:14:21.354Z,100832
2017-10-10T07:16:49.454Z,100846
2017-10-10T07:19:17.547Z,100844
2017-10-10T07:21:46.639Z,100854
2017-10-10T07:24:15.529Z,100858
2017-10-10T07:26:44.392Z,100860
2017-10-10T07:29:12.712Z,100863
2017-10-10T07:31:41.151Z,100866
2017-10-10T07:34:09.252Z,100867
2017-10-10T07:36:38.148Z,100865
2017-10-10T07:39:07.088Z,100871
2017-10-10T07:41:35.182Z,100864
2017-10-10T07:44:03.357Z,100865
2017-10-10T07:46:32.416Z,100863
2017-10-10T07:49:00.606Z,100869
2017-10-10T07:51:29.929Z,100878
2017-10-10T07:53:58.932Z,100868
2017-10-10T07:56:27.036Z,100870
2017-10-10T07:58:55.884Z,100867
2017-10-10T08:01:24.049Z,100869
2017-10-10T08:03:53.068Z,100868
2017-10-10T08:06:21.501Z,100874
2017-10-10T08:08:49.792Z,100875
2017-10-10T08:11:18.895Z,100880
2017-10-10T08:13:47.008Z,100873
2017-10-10T08:16:15.107Z,100871
2017-10-10T08:18:43.293Z,100877
2017-10-10T08:21:11.413Z,100875
2017-10-10T08:23:39.482Z,100879
2017-10-10T08:26:07.626Z,100880
2017-10-10T08:28:35.720Z,100876
2017-10-10T08:31:03.824Z,100888
2017-10-10T08:33:32.737Z,100887
2017-10-10T08:36:01.879Z,100875
2017-10-10T08:38:30.018Z,100880
2017-10-10T08:40:58.803Z,100879
2017-10-10T08:43:26.950Z,100892
2017-10-10T08:45:55.054Z,100887
2017-10-10T08:48:24.074Z,100884
2017-10-10T08:50:52.186Z,100886
2017-10-10T08:53:21.074Z,100883
2017-10-10T08:55:49.201Z,100880
2017-10-10T08:58:17.320Z,100889
2017-10-10T09:00:46.188Z,100885
2017-10-10T09:03:14.720Z,100885
2017-10-10T09:05:43.805Z,100889
2017-10-10T09:08:12.455Z,100890
2017-10-10T09:10:40.570Z,100891
2017-10-10T09:13:08.669Z,100892
2017-10-10T09:15:37.232Z,100894
2017-10-10T09:18:05.354Z,100887
2017-10-10T09:20:33.476Z,100890
2017-10-10T09:23:01.633Z,100884
2017-10-10T09:25:30.487Z,100876
2017-10-10T09:27:58.571Z,100876
2017-10-10T09:30:27.012Z,100868
2017-10-10T09:32:55.120Z,100888
2017-10-10T09:35:23.225Z,100885
2017-10-10T09:37:52.535Z,100897
2017-10-10T09:40:20.729Z,100902
2017-10-10T09:42:48.896Z,100907
2017-10-10T09:45:17.006Z,100901
2017-10-10T09:47:45.116Z,100899
2017-10-10T09:50:13.204Z,100903
2017-10-10T09:52:41.351Z,100914
2017-10-10T09:55:09.448Z,100914
2017-10-10T09:57:37.541Z,100917
2017-10-10T10:00:05.652Z,100919
2017-10-10T10:02:35.514Z,100915
2017-10-10T10:05:03.669Z,100902
2017-10-10T10:07:31.759Z,100910
2017-10-10T10:09:59.908Z,100912
2017-10-10T10:12:28.000Z,100910
2017-10-10T10:14:56.075Z,100914
2017-10-10T10:17:24.225Z,100914
2017-10-10T10:19:52.331Z,100913
2017-10-10T10:22:20.444Z,100915
2017-10-10T10:24:48.539Z,100915
2017-10-10T10:27:16.659Z,100903
2017-10-10T10:29:44.739Z,100905
2017-10-10T10:32:12.879Z,100903
2017-10-10T10:34:41.007Z,100900
2017-10-10T10:37:09.124Z,100905
2017-10-10T10:39:37.235Z,100893
2017-10-10T10:42:05.339Z,100894
2017-10-10T10:44:34.226Z,100895
2017-10-10T10:47:03.225Z,100893
2017-10-10T10:49:31.311Z,100897
2017-10-10T10:51:59.417Z,100888
2017-10-10T10:54:27.946Z,100903
2017-10-10T10:56:56.808Z,100890
2017-10-10T10:59:24.947Z,100902
2017-10-10T11:01:53.039Z,100900
2017-10-10T11:04:21.156Z,100898
2017-10-10T11:06:49.357Z,100904
2017-10-10T11:09:17.464Z,100912
2017-10-10T11:11:45.580Z,100910
2017-10-10T11:14:14.433Z,100914
2017-10-10T11:16:42.548Z,100917
2017-10-10T11:19:10.659Z,100919
2017-10-10T11:21:38.753Z,100918
2017-10-10T11:24:07.880Z,100922
2017-10-10T11:26:36.001Z,100917
2017-10-10T11:29:04.141Z,100923
2017-10-10T11:31:32.257Z,100928
2017-10-10T11:34:00.368Z,100916
2017-10-10T11:36:29.252Z,100912
2017-10-10T11:38:57.353Z,100905
2017-10-10T11:41:25.447Z,100904
2017-10-10T11:43:53.540Z,100898
2017-10-10T11:46:22.730Z,100902
2017-10-10T11:48:50.841Z,100899
2017-10-10T11:51:18.923Z,100893
2017-10-10T11:53:47.030Z,100906
2017-10-10T11:56:15.139Z,100903
2017-10-10T11:58:43.237Z,100911
2017-10-10T12:01:11.620Z,100913
2017-10-10T12:03:39.713Z,100910
2017-10-10T12:06:07.798Z,100903
2017-10-10T12:08:35.977Z,100906
2017-10-10T12:11:04.086Z,100903
2017-10-10T12:13:32.197Z,100906
2017-10-10T12:16:01.077Z,100887
2017-10-10T12:18:29.196Z,100895
2017-10-10T12:20:57.296Z,100890
2017-10-10T12:23:25.392Z,100897
2017-10-10T12:25:54.262Z,100901
2017-10-10T12:28:22.381Z,100896
2017-10-10T12:30:50.476Z,100900
2017-10-10T12:33:18.585Z,100904
2017-10-10T12:35:46.691Z,100895
2017-10-10T12:38:14.776Z,100895
2017-10-10T12:40:43.964Z,100885
2017-10-10T12:43:12.056Z,100912
2017-10-10T12:45:40.160Z,100892
2017-10-10T12:48:08.422Z,100894
2017-10-10T12:50:36.509Z,100889
2017-10-10T12:53:04.700Z,100897
2017-10-10T12:55:32.830Z,100868
2017-10-10T12:58:00.936Z,100892
2017-10-10T13:00:29.026Z,100881
2017-10-10T13:02:57.907Z,100887
2017-10-10T13:05:26.016Z,100894
2017-10-10T13:07:55.104Z,100890
2017-10-10T13:10:23.212Z,100887
2017-10-10T13:12:51.305Z,100892
2017-10-10T13:15:19.428Z,100894
2017-10-10T13:17:47.624Z,100893
2017-10-10T13:20:15.716Z,100895
2017-10-10T13:22:43.833Z,100896
2017-10-10T13:25:12.849Z,100894
2017-10-10T13:27:40.973Z,100893
2017-10-10T13:30:09.072Z,100900
2017-10-10T13:32:37.171Z,100906
2017-10-10T13:35:05.297Z,100904
2017-10-10T13:37:33.400Z,100903
2017-10-10T13:40:01.516Z,100906
2017-10-10T13:42:29.593Z,100910
2017-10-10T13:44:57.753Z,100908
2017-10-10T13:47:26.045Z,100905
2017-10-10T13:49:54.180Z,100908
2017-10-10T13:52:22.572Z,100911
2017-10-10T13:54:51.152Z,100918
2017-10-10T13:57:19.282Z,100912
2017-10-10T13:59:48.564Z,100908
2017-10-10T14:02:16.653Z,100903
2017-10-10T14:04:45.556Z,100902
2017-10-10T14:07:14.417Z,100902
2017-10-10T14:09:42.506Z,100894
2017-10-10T14:12:11.393Z,100893
2017-10-10T14:14:39.502Z,100901
2017-10-10T14:17:07.704Z,100896
2017-10-10T14:19:35.828Z,100900
2017-10-10T14:22:04.146Z,100893
2017-10-10T14:24:32.237Z,100891
2017-10-10T14:27:00.360Z,100894
2017-10-10T14:29:28.452Z,100895
2017-10-10T14:31:56.555Z,100893
2017-10-10T14:34:24.663Z,100893
2017-10-10T14:36:52.753Z,100882
2017-10-10T14:39:20.885Z,100890
2017-10-10T14:41:48.969Z,100889
2017-10-10T14:44:17.079Z,100888
2017-10-10T14:46:45.186Z,100883
2017-10-10T14:49:13.289Z,100880
2017-10-10T14:51:41.398Z,100876
2017-10-10T14:54:09.493Z,100876
2017-10-10T14:56:37.730Z,100876
2017-10-10T14:59:05.841Z,100882
2017-10-10T15:01:33.988Z,100886
2017-10-10T15:04:02.220Z,100894
2017-10-10T15:06:30.335Z,100894
2017-10-10T15:08:58.455Z,100891
2017-10-10T15:11:26.547Z,100901
2017-10-10T15:13:55.505Z,100893
2017-10-10T15:16:23.727Z,100889
2017-10-10T15:18:52.589Z,100891
2017-10-10T15:21:20.723Z,100893
2017-10-10T15:23:49.136Z,100899
2017-10-10T15:26:17.233Z,100908
2017-10-10T15:28:46.116Z,100908
2017-10-10T15:31:14.208Z,100916
2017-10-10T15:33:42.475Z,100914
2017-10-10T15:36:10.584Z,100916
2017-10-10T15:38:38.681Z,100927
2017-10-10T15:41:07.707Z,100923
2017-10-10T15:43:35.785Z,100916
2017-10-10T15:46:03.902Z,100921
2017-10-10T15:48:32.020Z,100923
2017-10-10T15:51:00.170Z,100928
2017-10-10T15:53:28.263Z,100922
2017-10-10T15:55:56.355Z,100925
2017-10-10T15:58:24.510Z,100933
2017-10-10T16:07:37.423Z,100935
2017-10-10T16:10:05.565Z,100940
2017-10-10T16:12:33.673Z,100938
2017-10-10T16:15:02.865Z,100940
2017-10-10T16:17:30.968Z,100937
2017-10-10T16:19:59.067Z,100940
2017-10-10T16:22:27.194Z,100944
2017-10-10T16:24:55.444Z,100947
2017-10-10T16:27:24.492Z,100942
2017-10-10T16:29:52.833Z,100947
2017-10-10T16:32:21.108Z,100940
2017-10-10T16:34:49.449Z,100955
2017-10-10T16:37:17.653Z,100952
2017-10-10T16:39:46.580Z,100953
2017-10-10T16:42:14.674Z,100941
2017-10-10T16:44:42.787Z,100942
2017-10-10T16:47:11.824Z,100946
2017-10-10T16:49:39.961Z,100935
2017-10-10T16:52:08.064Z,100947
2017-10-10T16:54:36.165Z,100945
2017-10-10T16:57:04.286Z,100946
2017-10-10T16:59:32.398Z,100953
2017-10-10T17:02:00.491Z,100946
2017-10-10T17:04:28.599Z,100959
2017-10-10T17:06:56.733Z,100952
2017-10-10T17:09:24.856Z,100956
2017-10-10T17:11:52.960Z,100962
2017-10-10T17:14:21.084Z,100953
2017-10-10T17:16:49.175Z,100964
2017-10-10T17:19:17.296Z,100958
2017-10-10T17:21:45.498Z,100963
2017-10-10T17:24:14.344Z,100956
2017-10-10T17:26:42.528Z,100950
2017-10-10T17:29:10.625Z,100969
2017-10-10T17:31:39.504Z,100964
2017-10-10T17:34:07.609Z,100970
2017-10-10T17:36:35.703Z,100972
2017-10-10T17:39:03.833Z,100962
2017-10-10T17:41:31.975Z,100959
2017-10-10T17:44:00.106Z,100967
2017-10-10T17:46:28.196Z,100967
2017-10-10T17:48:56.294Z,100973
2017-10-10T17:51:24.408Z,100964
2017-10-10T17:53:52.484Z,100977
2017-10-10T17:56:20.618Z,100974
2017-10-10T17:58:48.740Z,100968
2017-10-10T18:01:16.857Z,100972
2017-10-10T18:03:45.206Z,100963
2017-10-10T18:06:13.292Z,100976
2017-10-10T18:08:41.412Z,100974
2017-10-10T18:11:10.380Z,100973
2017-10-10T18:13:39.514Z,100985
2017-10-10T18:16:07.604Z,100975
2017-10-10T18:18:35.711Z,100973
2017-10-10T18:21:03.816Z,100975
2017-10-10T18:23:32.699Z,100974
2017-10-10T18:26:00.816Z,100984
2017-10-10T18:28:28.911Z,100974
2017-10-10T18:30:57.288Z,100971
2017-10-10T18:33:25.426Z,100979
2017-10-10T18:35:53.511Z,100968
2017-10-10T18:38:21.637Z,100979
2017-10-10T18:40:50.495Z,100979
2017-10-10T18:43:19.537Z,100985
2017-10-10T18:45:47.619Z,100985
2017-10-10T18:48:15.727Z,100985
2017-10-10T18:50:43.855Z,100987
2017-10-10T18:53:11.942Z,100982
2017-10-10T18:55:40.063Z,100990
2017-10-10T18:58:08.172Z,100985
2017-10-10T19:00:36.295Z,100991
2017-10-10T19:03:05.322Z,100982
2017-10-10T19:05:34.207Z,100982
2017-10-10T19:08:02.287Z,100985
2017-10-10T19:10:31.168Z,100976
2017-10-10T19:12:59.313Z,100980
2017-10-10T19:15:28.310Z,100972
2017-10-10T19:17:56.500Z,100974
2017-10-10T19:20:24.598Z,100967
2017-10-10T19:22:53.723Z,100971
2017-10-10T19:25:22.740Z,100969
2017-10-10T19:27:50.856Z,100964
2017-10-10T19:30:18.968Z,100965
2017-10-10T19:32:47.054Z,100965
2017-10-10T19:35:15.163Z,100966
2017-10-10T19:37:44.978Z,100973
2017-10-10T19:40:14.937Z,100974
2017-10-10T19:42:44.286Z,100978
2017-10-10T19:45:12.380Z,100980
2017-10-10T19:47:41.283Z,100992
2017-10-10T19:50:09.395Z,100996
2017-10-10T19:52:37.672Z,100999
2017-10-10T19:55:05.786Z,100996
2017-10-10T19:57:34.147Z,100986
2017-10-10T20:00:02.297Z,100991
2017-10-10T20:02:30.431Z,100995
2017-10-10T20:04:59.452Z,100989
2017-10-10T20:07:27.595Z,100994
2017-10-10T20:09:55.731Z,100994
2017-10-10T20:12:23.814Z,100990
2017-10-10T20:14:52.774Z,100992
2017-10-10T20:17:20.864Z,100997
2017-10-10T20:19:50.043Z,100991
2017-10-10T20:22:18.211Z,100994
2017-10-10T20:24:47.269Z,101001
2017-10-10T20:27:15.534Z,100993
2017-10-10T20:29:43.649Z,100991
2017-10-10T20:32:11.872Z,100994
2017-10-10T20:34:39.962Z,101006
2017-10-10T20:37:08.822Z,101005
2017-10-10T20:39:36.967Z,101010
2017-10-10T20:42:05.395Z,101007
2017-10-10T20:44:34.312Z,101002
2017-10-10T20:47:02.409Z,101007
2017-10-10T20:49:30.556Z,101008
2017-10-10T20:51:58.668Z,101002
2017-10-10T20:54:26.818Z,101010
2017-10-10T20:56:54.911Z,101010
2017-10-10T20:59:23.023Z,101018
2017-10-10T21:01:51.914Z,101016
2017-10-10T21:04:20.816Z,101022
2017-10-10T21:06:49.699Z,101025
2017-10-10T21:09:18.572Z,101025
2017-10-10T21:11:46.691Z,101025
2017-10-10T21:14:15.142Z,101024
2017-10-10T21:16:44.042Z,101022
2017-10-10T21:19:12.924Z,101024
2017-10-10T21:21:41.797Z,101013
2017-10-10T21:24:09.920Z,101014
2017-10-10T21:26:38.299Z,101006
2017-10-10T21:29:06.409Z,101011
2017-10-10T21:31:34.517Z,101016
2017-10-10T21:34:03.382Z,101017
2017-10-10T21:36:31.626Z,101017
2017-10-10T21:38:59.737Z,101023
2017-10-10T21:41:27.837Z,101015
2017-10-10T21:43:55.935Z,101015
2017-10-10T21:46:24.011Z,101022
2017-10-10T21:48:52.184Z,101012
2017-10-10T21:51:20.310Z,101017
2017-10-10T21:53:49.184Z,101020
2017-10-10T21:56:17.300Z,101021
2017-10-10T21:58:45.483Z,101018
2017-10-10T22:01:13.948Z,101009
2017-10-10T22:03:42.039Z,101012
2017-10-10T22:06:10.123Z,101013
2017-10-10T22:08:38.223Z,101014
2017-10-10T22:11:06.317Z,101005
2017-10-10T22:13:34.432Z,101011
2017-10-10T22:16:02.558Z,101009
2017-10-10T22:18:31.048Z,100998
2017-10-10T22:20:59.237Z,100993
2017-10-10T22:23:27.343Z,101000
2017-10-10T22:25:55.559Z,100991
2017-10-10T22:28:23.663Z,100985
2017-10-10T22:30:51.768Z,100992
2017-10-10T22:33:19.882Z,100996
2017-10-10T22:35:47.980Z,100992
2017-10-10T22:38:16.876Z,100995
2017-10-10T22:40:44.973Z,100997
2017-10-10T22:43:13.071Z,100992
2017-10-10T22:45:41.361Z,100986
2017-10-10T22:48:09.447Z,100987
2017-10-10T22:50:37.634Z,100983
2017-10-10T22:53:05.743Z,100973
2017-10-10T22:55:33.832Z,100988
2017-10-10T22:58:01.937Z,100991
2017-10-10T23:00:30.036Z,100988
2017-10-10T23:02:58.147Z,100988
2017-10-10T23:05:26.346Z,100998
2017-10-10T23:07:54.437Z,100986
2017-10-10T23:10:22.563Z,100995
2017-10-10T23:12:50.663Z,100990
2017-10-10T23:15:19.160Z,100984
2017-10-10T23:17:48.956Z,100985
2017-10-10T23:20:17.824Z,100989
2017-10-10T23:22:46.204Z,100991
2017-10-10T23:25:14.293Z,100990
2017-10-10T23:27:42.441Z,100989
2017-10-10T23:30:10.544Z,100995
2017-10-10T23:32:38.645Z,100990
2017-10-10T23:35:06.756Z,100989
2017-10-10T23:37:35.116Z,100988
2017-10-10T23:40:04.196Z,100992
2017-10-10T23:42:32.293Z,100989
2017-10-10T23:45:00.396Z,100987
2017-10-10T23:47:28.491Z,100993
2017-10-10T23:49:57.349Z,100985
2017-10-10T23:52:25.580Z,100992
2017-10-10T23:54:53.670Z,100996
2017-10-10T23:57:21.777Z,100998
2017-10-10T23:59:49.861Z,100987
